Sebastian, FL

6:26 AM EDT on September 16, 2014 (GMT -0400)
Vero Beach Municipal | Change Station
CLOSE
Current Station
Airport
Location: Vero Beach,
Elevation: 23 ft
Nearby Weather Stations

Elev 23 ft 27.66 °N, 80.42 °W | Updated 33 minutes ago

Partly Cloudy
Partly Cloudy
72 °F
Feels Like 72 °F
N
0
Wind Variable Wind from North

Today
High -- | Low -- °F
--% Chance of Precip.
Yesterday
High -- | Low -- °F
Precip. -- in
7:07 AM 7:25 PM
Waning Gibbous, 47% visible
Pressure 30.08 in
Visibility 10.0 miles
Clouds Clear
Dew Point 69 °F
Humidity 91%
Rainfall 0.00 in
Snow Depth Not available.
UV 0 out of 12
Pollen 7.20 out of 12
Air Quality Not available.
Flu Activity Not available.
METAR KVRB 160953Z AUTO 00000KT 10SM CLR 22/21 A3008 RMK AO2 SLP184 T02220206

More Conditions Fewer Conditions

Pressure 30.08 in
Visibility 10.0 miles
Clouds Clear
Dew Point 69 °F
Humidity 91%
Rainfall 0.00 in
Snow Depth Not available.
UV 0 out of 12
Pollen 7.20 out of 12
Air Quality Not available.
Flu Activity Not available.
METAR KVRB 160953Z AUTO 00000KT 10SM CLR 22/21 A3008 RMK AO2 SLP184 T02220206

More Conditions Fewer Conditions

10-Day Weather Forecast

Almanac

Astronomy

Sep. 16, 2014 Rise Set
Actual Time 7:07 AM EDT 7:25 PM EDT
Civil Twilight 6:44 AM EDT 7:48 PM EDT
Nautical Twilight 6:16 AM EDT 8:16 PM EDT
Astronomical Twilight 5:49 AM EDT 8:43 PM EDT
Moon 12:38 AM EDT 2:26 PM EDT
Length of Visible Light 13h 04m
Length of Day
12h 17m
Tomorrow will be 1m 39s shorter.
Waning Gibbous, 47% of the Moon is Illuminated
Today
Waning Gibbous
Sep 24
New
Oct 1
First Quarter
Oct 8
Full
Oct 15
Last Quarter

Today's Extremes

State Highs State Lows

Community

WunderPhotos

Upload Photos

1,753,718 photos uploaded!

WunderBlogs® & News

Nearby

Snow Depth

Station Depth Elevation
No new snow has been reported.

Earthquake Activity

City Distance Mag. Time & Date
No recent earthquake activity has been reported nearby.
Minimum magnitude displayed is 2.5.

Coastal Water Temperatures

Place Temperature
Lake Worth, FL 84.9 °F
Trident Pier, FL 86.0 °F
Virginia Key, FL 84.9 °F

Nearby Weather Stations